createdAt,value
2023-04-17T00:01:40.271Z,8.45
2023-04-17T00:04:10.773Z,8.48
2023-04-17T00:06:43.637Z,8.43
2023-04-17T00:09:12.037Z,8.44
2023-04-17T00:11:40.416Z,8.43
2023-04-17T00:14:08.408Z,8.46
2023-04-17T00:16:36.314Z,8.32
2023-04-17T00:19:04.167Z,8.23
2023-04-17T00:21:32.291Z,8.27
2023-04-17T00:24:01.732Z,8.17
2023-04-17T00:26:29.888Z,8.12
2023-04-17T00:28:57.704Z,8.14
2023-04-17T00:31:25.683Z,8.20
2023-04-17T00:33:53.943Z,8.14
2023-04-17T00:36:24.549Z,8.21
2023-04-17T00:38:52.413Z,8.18
2023-04-17T00:41:21.827Z,8.17
2023-04-17T00:43:49.681Z,8.16
2023-04-17T00:46:17.905Z,8.17
2023-04-17T00:48:45.926Z,8.19
2023-04-17T00:51:13.722Z,8.17
2023-04-17T00:53:41.814Z,8.07
2023-04-17T00:56:10.820Z,8.14
2023-04-17T00:58:41.947Z,8.02
2023-04-17T01:01:09.727Z,8.00
2023-04-17T01:03:37.826Z,8.01
2023-04-17T01:06:06.191Z,7.91
2023-04-17T01:08:45.412Z,7.98
2023-04-17T01:11:13.488Z,7.95
2023-04-17T01:13:49.486Z,7.98
2023-04-17T01:16:17.771Z,7.83
2023-04-17T01:18:46.512Z,7.67
2023-04-17T01:21:14.571Z,7.76
2023-04-17T01:23:49.903Z,7.83
2023-04-17T01:26:21.148Z,7.85
2023-04-17T01:29:07.535Z,7.85
2023-04-17T01:31:35.345Z,7.83
2023-04-17T01:34:03.170Z,7.75
2023-04-17T01:36:31.770Z,7.77
2023-04-17T01:38:59.711Z,7.85
2023-04-17T01:41:27.495Z,7.85
2023-04-17T01:43:55.317Z,7.74
2023-04-17T01:46:24.892Z,7.81
2023-04-17T01:48:53.451Z,7.78
2023-04-17T01:51:21.513Z,7.76
2023-04-17T01:53:49.314Z,7.63
2023-04-17T01:56:18.071Z,7.77
2023-04-17T01:58:45.908Z,7.73
2023-04-17T02:01:14.825Z,7.73
2023-04-17T02:03:44.162Z,7.78
2023-04-17T02:06:12.100Z,7.87
2023-04-17T02:08:39.863Z,7.77
2023-04-17T02:11:07.996Z,7.81
2023-04-17T02:13:35.861Z,7.77
2023-04-17T02:16:03.628Z,7.84
2023-04-17T02:18:31.391Z,7.82
2023-04-17T02:21:00.818Z,7.81
2023-04-17T02:23:28.672Z,7.80
2023-04-17T02:25:56.525Z,7.71
2023-04-17T02:28:24.601Z,7.66
2023-04-17T02:30:52.353Z,7.66
2023-04-17T02:33:20.278Z,7.75
2023-04-17T02:35:48.259Z,7.81
2023-04-17T02:38:17.688Z,7.68
2023-04-17T02:40:45.529Z,7.81
2023-04-17T02:43:14.133Z,7.79
2023-04-17T02:45:41.948Z,7.76
2023-04-17T02:48:10.431Z,7.80
2023-04-17T02:50:38.252Z,7.83
2023-04-17T02:53:06.018Z,7.73
2023-04-17T02:55:35.327Z,7.74
2023-04-17T02:58:03.170Z,7.75
2023-04-17T03:00:31.181Z,7.74
2023-04-17T03:02:59.045Z,7.68
2023-04-17T03:05:30.367Z,7.74
2023-04-17T03:07:58.928Z,7.76
2023-04-17T03:10:26.976Z,7.69
2023-04-17T03:12:56.259Z,7.65
2023-04-17T03:15:24.372Z,7.70
2023-04-17T03:17:52.255Z,7.73
2023-04-17T03:20:20.145Z,7.79
2023-04-17T03:22:52.198Z,7.72
2023-04-17T03:25:23.662Z,7.75
2023-04-17T03:27:51.573Z,7.81
2023-04-17T03:30:21.024Z,7.86
2023-04-17T03:32:48.989Z,7.89
2023-04-17T03:35:16.870Z,7.78
2023-04-17T03:37:44.618Z,7.86
2023-04-17T03:40:12.835Z,7.64
2023-04-17T03:42:40.690Z,7.81
2023-04-17T03:45:10.110Z,7.76
2023-04-17T03:47:39.318Z,7.73
2023-04-17T03:50:08.265Z,7.76
2023-04-17T03:52:36.012Z,7.67
2023-04-17T03:55:04.048Z,7.66
2023-04-17T03:57:31.989Z,7.57
2023-04-17T03:59:59.834Z,7.67
2023-04-17T04:02:27.788Z,7.57
2023-04-17T04:04:57.252Z,7.73
2023-04-17T04:07:25.274Z,7.77
2023-04-17T04:09:53.267Z,7.75
2023-04-17T04:12:23.002Z,7.79
2023-04-17T04:14:50.814Z,7.76
2023-04-17T04:17:18.734Z,7.67
2023-04-17T04:19:47.965Z,7.76
2023-04-17T04:22:18.690Z,7.71
2023-04-17T04:24:47.391Z,7.84
2023-04-17T04:27:18.263Z,7.83
2023-04-17T04:29:48.942Z,7.76
2023-04-17T04:32:17.069Z,7.72
2023-04-17T04:34:45.777Z,7.61
2023-04-17T04:37:15.655Z,7.73
2023-04-17T04:39:47.364Z,7.77
2023-04-17T04:42:21.947Z,7.82
2023-04-17T04:44:50.018Z,7.89
2023-04-17T04:47:20.061Z,7.82
2023-04-17T04:49:48.324Z,7.81
2023-04-17T04:52:16.225Z,7.70
2023-04-17T04:54:45.481Z,7.81
2023-04-17T04:57:15.846Z,7.79
2023-04-17T04:59:44.850Z,7.85
2023-04-17T05:02:17.864Z,7.81
2023-04-17T05:04:49.973Z,7.85
2023-04-17T05:07:17.954Z,7.86
2023-04-17T05:09:54.858Z,7.92
2023-04-17T05:12:22.696Z,7.94
2023-04-17T05:14:50.554Z,7.94
2023-04-17T05:17:18.793Z,7.84
2023-04-17T05:19:47.742Z,7.93
2023-04-17T05:22:15.919Z,7.97
2023-04-17T05:24:43.953Z,7.98
2023-04-17T05:27:13.080Z,7.97
2023-04-17T05:29:40.886Z,7.98
2023-04-17T05:32:08.813Z,8.00
2023-04-17T05:34:36.810Z,7.99
2023-04-17T05:37:04.599Z,7.93
2023-04-17T05:39:32.389Z,7.96
2023-04-17T05:42:00.282Z,7.84
2023-04-17T05:44:29.418Z,7.90
2023-04-17T05:47:00.177Z,7.96
2023-04-17T05:49:28.037Z,7.93
2023-04-17T05:51:56.035Z,7.89
2023-04-17T05:54:23.861Z,7.96
2023-04-17T05:56:52.233Z,8.02
2023-04-17T05:59:21.150Z,8.03
2023-04-17T06:01:51.010Z,8.02
2023-04-17T06:04:19.148Z,8.00
2023-04-17T06:06:47.330Z,8.03
2023-04-17T06:09:15.887Z,8.04
2023-04-17T06:11:43.694Z,8.08
2023-04-17T06:14:11.489Z,7.94
2023-04-17T06:16:39.388Z,7.98
2023-04-17T06:19:08.654Z,8.04
2023-04-17T06:21:36.438Z,8.13
2023-04-17T06:24:04.628Z,8.16
2023-04-17T06:26:35.359Z,8.06
2023-04-17T06:29:03.792Z,8.15
2023-04-17T06:31:31.833Z,8.17
2023-04-17T06:34:05.686Z,8.09
2023-04-17T06:36:35.250Z,8.16
2023-04-17T06:39:03.359Z,8.25
2023-04-17T06:41:31.284Z,8.18
2023-04-17T06:44:01.482Z,8.11
2023-04-17T06:46:29.426Z,8.11
2023-04-17T06:48:59.952Z,8.22
2023-04-17T06:51:35.380Z,8.15
2023-04-17T06:54:03.377Z,8.31
2023-04-17T06:56:33.417Z,8.25
2023-04-17T06:59:02.988Z,8.33
2023-04-17T07:01:31.490Z,8.34
2023-04-17T07:03:59.575Z,8.42
2023-04-17T07:06:46.610Z,8.39
2023-04-17T07:09:16.512Z,8.37
2023-04-17T07:11:44.850Z,8.38
2023-04-17T07:14:13.019Z,8.41
2023-04-17T07:16:51.799Z,8.34
2023-04-17T07:19:21.347Z,8.36
2023-04-17T07:21:49.414Z,8.33
2023-04-17T07:24:19.008Z,8.39
2023-04-17T07:26:47.164Z,8.37
2023-04-17T07:29:15.636Z,8.35
2023-04-17T07:31:43.825Z,8.24
2023-04-17T07:34:11.636Z,8.49
2023-04-17T07:36:39.763Z,8.38
2023-04-17T07:39:08.117Z,8.55
2023-04-17T07:41:37.467Z,8.45
2023-04-17T07:44:07.186Z,8.56
2023-04-17T07:46:35.321Z,8.58
2023-04-17T07:49:04.656Z,8.52
2023-04-17T07:51:33.120Z,8.54
2023-04-17T07:54:01.529Z,8.54
2023-04-17T07:56:32.164Z,8.33
2023-04-17T07:59:02.745Z,8.46
2023-04-17T08:01:32.113Z,8.48
2023-04-17T08:04:00.511Z,8.30
2023-04-17T08:06:28.526Z,8.53
2023-04-17T08:08:56.794Z,8.66
2023-04-17T08:11:24.757Z,8.66
2023-04-17T08:13:52.834Z,8.59
2023-04-17T08:16:22.413Z,8.73
2023-04-17T08:18:50.510Z,8.75
2023-04-17T08:21:20.267Z,8.79
2023-04-17T08:23:51.463Z,8.76
2023-04-17T08:26:22.582Z,8.73
2023-04-17T08:28:53.820Z,8.77
2023-04-17T08:31:23.513Z,8.86
2023-04-17T08:34:02.812Z,8.88
2023-04-17T08:36:41.451Z,8.75
2023-04-17T08:39:14.639Z,8.63
2023-04-17T08:41:50.417Z,8.73
2023-04-17T08:44:23.035Z,8.87
2023-04-17T08:46:53.895Z,8.89
2023-04-17T08:49:21.913Z,8.80
2023-04-17T08:51:50.854Z,8.76
2023-04-17T08:54:19.965Z,8.85
2023-04-17T08:56:48.098Z,8.93
2023-04-17T08:59:17.197Z,9.01
2023-04-17T09:02:05.310Z,9.25
2023-04-17T09:04:41.853Z,9.11
2023-04-17T09:07:11.559Z,9.13
2023-04-17T09:09:53.012Z,9.13
2023-04-17T09:12:21.900Z,9.14
2023-04-17T09:14:50.097Z,9.18
2023-04-17T09:17:20.678Z,9.21
2023-04-17T09:20:11.985Z,9.13
2023-04-17T09:22:42.426Z,9.33
2023-04-17T09:25:18.248Z,9.42
2023-04-17T09:27:46.841Z,9.44
2023-04-17T09:30:15.056Z,9.53
2023-04-17T09:32:44.576Z,9.48
2023-04-17T09:35:24.565Z,9.71
2023-04-17T09:37:54.183Z,9.96
2023-04-17T09:40:23.517Z,10.20
2023-04-17T09:42:56.495Z,10.22
2023-04-17T09:45:25.595Z,10.19
2023-04-17T09:47:56.173Z,10.23
2023-04-17T09:50:25.788Z,10.32
2023-04-17T09:52:55.494Z,10.34
2023-04-17T09:55:24.870Z,10.54
2023-04-17T09:57:55.537Z,10.62
2023-04-17T10:00:27.110Z,10.57
2023-04-17T10:02:58.148Z,10.54
2023-04-17T10:05:29.056Z,10.64
2023-04-17T10:07:57.869Z,10.74
2023-04-17T10:10:26.925Z,11.21
2023-04-17T10:12:59.889Z,11.33
2023-04-17T10:15:28.580Z,11.41
2023-04-17T10:18:23.026Z,11.66
2023-04-17T10:20:53.374Z,11.79
2023-04-17T10:23:32.863Z,11.95
2023-04-17T10:26:43.572Z,12.07
2023-04-17T10:29:12.779Z,12.15
2023-04-17T10:32:25.851Z,12.14
2023-04-17T10:34:57.193Z,12.31
2023-04-17T10:37:58.469Z,12.42
2023-04-17T10:40:30.522Z,12.40
2023-04-17T10:43:09.734Z,12.19
2023-04-17T10:45:54.516Z,12.28
2023-04-17T10:48:26.597Z,12.53
2023-04-17T10:50:56.250Z,12.72
2023-04-17T10:53:44.596Z,12.87
2023-04-17T10:56:18.150Z,13.04
2023-04-17T10:59:02.540Z,13.16
2023-04-17T11:01:31.790Z,12.96
2023-04-17T11:04:00.554Z,12.99
2023-04-17T11:06:32.505Z,12.83
2023-04-17T11:09:01.401Z,12.86
2023-04-17T11:11:43.559Z,13.06
2023-04-17T11:14:14.657Z,13.04
2023-04-17T11:16:46.053Z,13.27
2023-04-17T11:19:19.399Z,13.41
2023-04-17T11:21:50.326Z,13.58
2023-04-17T11:24:24.069Z,13.71
2023-04-17T11:26:51.695Z,14.01
2023-04-17T11:29:20.774Z,14.04
2023-04-17T11:31:49.843Z,13.97
2023-04-17T11:34:17.846Z,13.92
2023-04-17T11:36:51.940Z,13.80
2023-04-17T11:39:20.126Z,13.69
2023-04-17T11:41:48.208Z,13.61
2023-04-17T11:44:16.790Z,13.67
2023-04-17T11:46:49.886Z,13.65
2023-04-17T11:49:17.722Z,13.37
2023-04-17T11:51:46.284Z,13.36
2023-04-17T11:54:26.140Z,13.37
2023-04-17T11:56:59.975Z,13.53
2023-04-17T11:59:32.053Z,13.50
2023-04-17T12:02:00.820Z,13.59
2023-04-17T12:04:30.221Z,13.95
2023-04-17T12:06:59.787Z,14.17
2023-04-17T12:09:31.867Z,14.12
2023-04-17T12:12:00.252Z,14.08
2023-04-17T12:14:28.088Z,14.11
2023-04-17T12:16:55.910Z,14.22
2023-04-17T12:19:25.556Z,14.44
2023-04-17T12:21:54.512Z,14.58
2023-04-17T12:24:24.890Z,14.17
2023-04-17T12:26:54.832Z,14.58
2023-04-17T12:29:36.302Z,14.85
2023-04-17T12:32:11.590Z,14.71
2023-04-17T12:34:39.491Z,14.86
2023-04-17T12:37:07.317Z,15.19
2023-04-17T12:39:35.078Z,15.47
2023-04-17T12:42:04.572Z,15.62
2023-04-17T12:44:32.341Z,15.40
2023-04-17T12:47:00.118Z,15.04
2023-04-17T12:49:27.951Z,14.98
2023-04-17T12:51:56.154Z,14.79
2023-04-17T12:54:23.905Z,15.06
2023-04-17T12:56:51.682Z,15.55
2023-04-17T12:59:20.909Z,15.75
2023-04-17T13:01:48.995Z,15.47
2023-04-17T13:04:17.168Z,15.26
2023-04-17T13:06:45.321Z,15.15
2023-04-17T13:09:13.181Z,15.30
2023-04-17T13:11:41.282Z,15.31
2023-04-17T13:14:09.109Z,15.12
2023-04-17T13:16:38.322Z,14.86
2023-04-17T13:19:06.313Z,14.70
2023-04-17T13:21:34.187Z,15.00
2023-04-17T13:24:02.061Z,15.18
2023-04-17T13:26:30.009Z,15.28
2023-04-17T13:28:57.923Z,15.23
2023-04-17T13:31:27.706Z,15.03
2023-04-17T13:33:56.942Z,15.04
2023-04-17T13:36:24.925Z,15.20
2023-04-17T13:38:52.727Z,15.32
2023-04-17T13:41:20.952Z,15.51
2023-04-17T13:43:48.817Z,15.64
2023-04-17T13:46:17.198Z,15.85
2023-04-17T13:48:45.082Z,15.68
2023-04-17T13:51:15.157Z,15.24
2023-04-17T13:53:43.180Z,15.03
2023-04-17T13:56:11.242Z,15.10
2023-04-17T13:58:40.429Z,15.23
2023-04-17T14:01:09.058Z,15.15
2023-04-17T14:03:39.749Z,14.98
2023-04-17T14:06:08.928Z,15.13
2023-04-17T14:08:38.549Z,15.27
2023-04-17T14:11:06.560Z,15.32
2023-04-17T14:13:34.438Z,15.39
2023-04-17T14:16:02.739Z,15.49
2023-04-17T14:18:30.528Z,15.40
2023-04-17T14:21:01.293Z,15.55
2023-04-17T14:23:29.343Z,15.41
2023-04-17T14:26:01.576Z,15.33
2023-04-17T14:28:29.680Z,15.36
2023-04-17T14:31:01.207Z,15.36
2023-04-17T14:33:29.579Z,15.46
2023-04-17T14:35:57.581Z,15.57
2023-04-17T14:38:25.534Z,15.50
2023-04-17T14:40:53.884Z,15.56
2023-04-17T14:43:23.170Z,15.66
2023-04-17T14:45:51.449Z,15.65
2023-04-17T14:48:21.058Z,15.58
2023-04-17T14:50:48.941Z,15.48
2023-04-17T14:53:17.980Z,15.37
2023-04-17T14:55:47.361Z,15.31
2023-04-17T14:58:17.690Z,15.27
2023-04-17T15:00:47.163Z,15.34
2023-04-17T15:03:15.294Z,15.36
2023-04-17T15:05:46.391Z,15.29
2023-04-17T15:08:14.510Z,15.13
2023-04-17T15:10:50.586Z,15.13
2023-04-17T15:13:19.505Z,15.06
2023-04-17T15:15:48.962Z,15.17
2023-04-17T15:18:19.755Z,15.19
2023-04-17T15:20:47.856Z,15.29
2023-04-17T15:23:17.532Z,15.28
2023-04-17T15:25:45.693Z,15.33
2023-04-17T15:28:13.548Z,15.18
2023-04-17T15:30:41.501Z,15.32
2023-04-17T15:33:10.823Z,15.24
2023-04-17T15:35:38.976Z,15.31
2023-04-17T15:38:07.036Z,15.21
2023-04-17T15:40:34.938Z,15.20
2023-04-17T15:43:03.111Z,15.21
2023-04-17T15:45:30.908Z,15.20
2023-04-17T15:48:00.471Z,15.18
2023-04-17T15:50:29.677Z,15.17
2023-04-17T15:52:57.603Z,15.09
2023-04-17T15:55:25.517Z,15.03
2023-04-17T15:57:53.328Z,14.89
2023-04-17T16:00:22.110Z,14.94
2023-04-17T16:02:50.192Z,14.77
2023-04-17T16:05:19.133Z,14.67
2023-04-17T16:07:48.713Z,14.66
2023-04-17T16:10:16.988Z,14.63
2023-04-17T16:12:46.381Z,14.58
2023-04-17T16:15:16.267Z,14.61
2023-04-17T16:17:45.604Z,14.74
2023-04-17T16:20:15.356Z,14.82
2023-04-17T16:22:43.278Z,14.83
2023-04-17T16:25:13.389Z,14.87
2023-04-17T16:27:41.512Z,14.84
2023-04-17T16:30:10.967Z,14.82
2023-04-17T16:32:38.819Z,14.74
2023-04-17T16:35:07.549Z,14.49
2023-04-17T16:37:35.420Z,14.51
2023-04-17T16:40:05.278Z,14.42
2023-04-17T16:42:34.875Z,14.35
2023-04-17T16:45:28.163Z,14.22
2023-04-17T16:47:56.454Z,14.18
2023-04-17T16:50:25.674Z,13.86
2023-04-17T16:52:53.681Z,14.00
2023-04-17T16:55:21.873Z,14.08
2023-04-17T16:57:51.486Z,14.04
2023-04-17T17:00:19.690Z,14.05
2023-04-17T17:02:47.606Z,14.00
2023-04-17T17:05:16.018Z,13.96
2023-04-17T17:07:43.889Z,13.94
2023-04-17T17:10:12.263Z,14.03
2023-04-17T17:12:40.221Z,14.00
2023-04-17T17:15:10.496Z,14.02
2023-04-17T17:17:38.923Z,13.93
2023-04-17T17:20:08.690Z,13.87
2023-04-17T17:22:36.623Z,13.80
2023-04-17T17:25:04.701Z,13.85
2023-04-17T17:27:32.556Z,13.77
2023-04-17T17:30:00.811Z,13.70
2023-04-17T17:32:33.406Z,13.72
2023-04-17T17:35:01.236Z,13.67
2023-04-17T17:37:29.167Z,13.60
2023-04-17T17:39:58.866Z,13.58
2023-04-17T17:42:27.224Z,13.43
2023-04-17T17:44:55.546Z,13.58
2023-04-17T17:47:23.591Z,13.48
2023-04-17T17:49:56.462Z,13.38
2023-04-17T17:52:24.565Z,13.50
2023-04-17T17:54:52.536Z,13.30
2023-04-17T17:57:20.874Z,13.34
2023-04-17T17:59:48.989Z,13.32
2023-04-17T18:02:17.315Z,13.45
2023-04-17T18:04:45.712Z,13.39
2023-04-17T18:07:15.419Z,13.40
2023-04-17T18:09:43.507Z,13.44
2023-04-17T18:12:11.839Z,13.41
2023-04-17T18:14:40.254Z,13.29
2023-04-17T18:17:08.415Z,13.28
2023-04-17T18:19:40.866Z,13.18
2023-04-17T18:22:09.385Z,13.04
2023-04-17T18:24:39.099Z,13.12
2023-04-17T18:27:06.955Z,13.07
2023-04-17T18:29:34.946Z,12.98
2023-04-17T18:32:03.649Z,12.92
2023-04-17T18:34:31.815Z,12.92
2023-04-17T18:37:00.608Z,12.85
2023-04-17T18:39:28.934Z,12.88
2023-04-17T18:41:59.833Z,12.72
2023-04-17T18:44:28.609Z,12.72
2023-04-17T18:46:56.627Z,12.71
2023-04-17T18:49:24.800Z,12.57
2023-04-17T18:51:52.930Z,12.62
2023-04-17T18:54:20.962Z,12.38
2023-04-17T18:56:48.873Z,12.39
2023-04-17T18:59:19.942Z,12.34
2023-04-17T19:01:47.886Z,12.20
2023-04-17T19:04:16.538Z,12.27
2023-04-17T19:06:58.459Z,12.16
2023-04-17T19:09:27.001Z,12.20
2023-04-17T19:11:56.252Z,12.19
2023-04-17T19:14:25.968Z,12.13
2023-04-17T19:16:54.582Z,12.04
2023-04-17T19:19:22.550Z,12.02
2023-04-17T19:21:50.946Z,12.02
2023-04-17T19:24:19.013Z,11.86
2023-04-17T19:26:47.432Z,11.51
2023-04-17T19:29:17.406Z,11.52
2023-04-17T19:31:47.149Z,11.65
2023-04-17T19:34:15.775Z,11.67
2023-04-17T19:36:47.024Z,11.46
2023-04-17T19:39:16.120Z,11.36
2023-04-17T19:41:51.016Z,11.42
2023-04-17T19:44:22.150Z,11.34
2023-04-17T19:46:51.775Z,11.33
2023-04-17T19:49:19.916Z,11.18
2023-04-17T19:51:47.957Z,11.21
2023-04-17T19:54:16.160Z,11.05
2023-04-17T19:56:44.448Z,11.20
2023-04-17T19:59:13.698Z,11.14
2023-04-17T20:01:43.782Z,11.12
2023-04-17T20:04:16.718Z,11.20
2023-04-17T20:06:45.062Z,11.13
2023-04-17T20:09:14.805Z,10.86
2023-04-17T20:11:43.514Z,11.08
2023-04-17T20:14:14.746Z,10.96
2023-04-17T20:16:45.362Z,10.96
2023-04-17T20:19:15.762Z,10.89
2023-04-17T20:21:44.084Z,10.78
2023-04-17T20:24:12.945Z,10.75
2023-04-17T20:26:41.183Z,10.67
2023-04-17T20:29:09.166Z,10.66
2023-04-17T20:31:37.185Z,10.63
2023-04-17T20:34:05.333Z,10.46
2023-04-17T20:36:34.707Z,10.42
2023-04-17T20:39:02.637Z,10.45
2023-04-17T20:41:30.444Z,10.44
2023-04-17T20:43:59.513Z,10.37
2023-04-17T20:46:27.614Z,10.33
2023-04-17T20:48:55.746Z,10.09
2023-04-17T20:51:26.462Z,10.12
2023-04-17T20:53:56.477Z,10.10
2023-04-17T20:56:24.665Z,9.92
2023-04-17T20:58:52.542Z,9.92
2023-04-17T21:01:20.619Z,9.90
2023-04-17T21:03:48.884Z,9.89
2023-04-17T21:06:27.134Z,9.74
2023-04-17T21:09:01.893Z,9.60
2023-04-17T21:11:29.957Z,9.73
2023-04-17T21:14:00.794Z,9.61
2023-04-17T21:16:29.808Z,9.58
2023-04-17T21:18:57.833Z,9.46
2023-04-17T21:21:26.390Z,9.56
2023-04-17T21:23:54.523Z,9.41
2023-04-17T21:26:24.144Z,9.34
2023-04-17T21:28:52.155Z,9.25
2023-04-17T21:31:20.039Z,9.34
2023-04-17T21:33:48.247Z,9.34
2023-04-17T21:36:16.355Z,9.26
2023-04-17T21:38:52.491Z,9.31
2023-04-17T21:41:20.424Z,9.29
2023-04-17T21:43:49.908Z,9.27
2023-04-17T21:46:17.867Z,9.07
2023-04-17T21:48:45.922Z,9.15
2023-04-17T21:51:14.303Z,9.03
2023-04-17T21:53:44.148Z,8.97
2023-04-17T21:56:12.125Z,9.01
2023-04-17T21:58:40.508Z,8.97
2023-04-17T22:01:09.982Z,8.95
2023-04-17T22:03:39.685Z,8.89
2023-04-17T22:06:16.437Z,8.90
2023-04-17T22:08:44.473Z,8.74
2023-04-17T22:11:16.203Z,8.82
2023-04-17T22:13:45.016Z,8.56
2023-04-17T22:16:14.424Z,8.69
2023-04-17T22:18:42.339Z,8.62
2023-04-17T22:21:10.396Z,8.66
2023-04-17T22:24:33.747Z,8.68
2023-04-17T22:27:20.475Z,8.61
2023-04-17T22:30:05.641Z,8.60
2023-04-17T22:33:11.943Z,8.60
2023-04-17T22:36:34.901Z,8.56
2023-04-17T22:39:03.598Z,8.57
2023-04-17T22:41:49.923Z,8.56
2023-04-17T22:44:17.986Z,8.60
2023-04-17T22:46:45.884Z,8.54
2023-04-17T22:49:15.536Z,8.51
2023-04-17T22:51:44.600Z,8.49
2023-04-17T22:54:22.186Z,8.40
2023-04-17T22:56:51.291Z,8.32
2023-04-17T22:59:27.775Z,8.29
2023-04-17T23:01:55.998Z,8.33
2023-04-17T23:04:25.513Z,8.32
2023-04-17T23:06:54.002Z,8.32
2023-04-17T23:09:21.929Z,8.30
2023-04-17T23:11:49.987Z,8.28
2023-04-17T23:14:18.214Z,8.19
2023-04-17T23:16:46.193Z,8.16
2023-04-17T23:19:14.162Z,8.13
2023-04-17T23:21:43.411Z,8.15
2023-04-17T23:24:11.755Z,8.20
2023-04-17T23:26:39.769Z,8.18
2023-04-17T23:29:07.507Z,8.17
2023-04-17T23:31:35.687Z,8.15
2023-04-17T23:34:03.520Z,8.09
2023-04-17T23:36:31.820Z,8.07
2023-04-17T23:39:00.991Z,8.03
2023-04-17T23:41:29.682Z,7.95
2023-04-17T23:43:57.670Z,7.90
2023-04-17T23:46:25.505Z,7.90
2023-04-17T23:48:53.302Z,7.88
2023-04-17T23:51:21.138Z,7.93
2023-04-17T23:53:49.232Z,7.94
2023-04-17T23:56:22.088Z,7.95
2023-04-17T23:58:49.916Z,7.95
